Time;durP1;ratioP1;P1;durP2;ratioP2;P2;SDS_P1;SDS_P2;PMS_P1;PMS_P2;Temp;Humidity;BMP_temperature;BMP_pressure;BME280_temperature;BME280_humidity;BME280_pressure;Samples;Min_cycle;Max_cycle;Signal;HPM_P1;HPM_P2
2022/10/14 00:01:25;;;;;;;9.73;4.43;;;;;;;7.98;99.50;102005.66;4900452;29;20111;-78
2022/10/14 00:03:53;;;;;;;8.73;4.30;;;;;;;7.98;99.63;102014.47;4900145;29;20149;-76
2022/10/14 00:06:23;;;;;;;8.98;3.97;;;;;;;7.97;99.54;102001.31;4916983;29;20068;-76
2022/10/14 00:08:49;;;;;;;9.17;4.47;;;;;;;7.98;99.54;102005.66;4916717;29;20480;-76
2022/10/14 00:11:22;;;;;;;7.27;4.03;;;;;;;7.96;99.86;102002.28;4929655;29;20110;-77
2022/10/14 00:13:48;;;;;;;12.00;4.67;;;;;;;7.92;100.00;101993.72;4918841;29;20130;-76
2022/10/14 00:16:20;;;;;;;7.77;4.10;;;;;;;8.04;100.00;102007.84;4935713;29;20063;-76
2022/10/14 00:18:46;;;;;;;5.83;3.93;;;;;;;8.04;99.36;102000.72;4935561;29;20059;-77
2022/10/14 00:21:12;;;;;;;10.23;4.73;;;;;;;8.03;99.96;101998.19;4935579;29;20128;-77
2022/10/14 00:23:38;;;;;;;9.77;4.00;;;;;;;8.07;99.98;101999.66;4935311;29;20024;-77
2022/10/14 00:26:03;;;;;;;6.57;4.30;;;;;;;8.01;100.00;101995.66;4935626;29;20057;-77
2022/10/14 00:28:29;;;;;;;7.20;4.20;;;;;;;8.04;99.99;101998.06;4918561;29;20028;-76
2022/10/14 00:30:57;;;;;;;7.20;4.27;;;;;;;7.88;99.87;101978.13;4935465;29;20443;-78
2022/10/14 00:33:23;;;;;;;9.77;4.33;;;;;;;7.81;99.94;101987.53;4935538;29;20028;-78
2022/10/14 00:35:58;;;;;;;10.07;3.67;;;;;;;7.84;100.00;101997.91;4937871;29;20032;-77
2022/10/14 00:38:24;;;;;;;8.53;4.33;;;;;;;7.75;100.00;101996.75;4937552;29;20032;-78
2022/10/14 00:40:50;;;;;;;9.20;3.63;;;;;;;7.68;100.00;101991.06;4937417;29;20032;-77
2022/10/14 00:43:17;;;;;;;4.60;4.13;;;;;;;7.74;100.00;101993.25;4937504;29;20051;-78
2022/10/14 00:45:42;;;;;;;6.57;4.07;;;;;;;7.69;100.00;101990.13;4939405;29;20039;-77
2022/10/14 00:48:08;;;;;;;5.83;3.50;;;;;;;7.65;100.00;101990.47;4932298;29;20027;-78
2022/10/14 00:50:34;;;;;;;6.93;3.80;;;;;;;7.68;100.00;101998.19;4948660;29;20087;-78
2022/10/14 00:53:02;;;;;;;9.80;3.80;;;;;;;7.63;100.00;101987.91;4948358;29;20099;-78
2022/10/14 00:55:28;;;;;;;6.20;4.07;;;;;;;7.64;100.00;101989.63;4929640;29;20417;-76
2022/10/14 00:57:54;;;;;;;7.00;3.63;;;;;;;7.65;100.00;101986.00;4948720;29;20031;-77
2022/10/14 01:00:21;;;;;;;8.43;3.90;;;;;;;7.66;100.00;101984.19;4947882;29;20027;-75
2022/10/14 01:02:47;;;;;;;8.10;4.07;;;;;;;7.44;100.00;101948.66;4944092;29;20034;-78
2022/10/14 01:05:14;;;;;;;11.70;5.73;;;;;;;7.71;100.00;101977.59;4947487;29;20031;-77
2022/10/14 01:08:18;;;;;;;7.13;4.77;;;;;;;7.73;100.00;101970.34;4946189;29;20055;-76
2022/10/14 01:11:06;;;;;;;8.77;4.27;;;;;;;7.73;100.00;101965.06;4910228;29;20119;-76
2022/10/14 01:13:35;;;;;;;8.73;4.45;;;;;;;7.80;100.00;101972.53;4958784;29;20039;-77
2022/10/14 01:16:15;;;;;;;12.70;4.73;;;;;;;7.87;100.00;101972.00;4958833;29;20044;-75
2022/10/14 01:18:43;;;;;;;11.17;4.53;;;;;;;7.89;100.00;101974.53;4957523;29;20114;-77
2022/10/14 01:21:51;;;;;;;6.10;4.20;;;;;;;7.94;100.00;101967.06;4953481;29;20384;-77
2022/10/14 01:24:32;;;;;;;9.30;4.70;;;;;;;8.00;100.00;101971.91;4914562;29;20035;-77
2022/10/14 01:27:17;;;;;;;8.53;4.93;;;;;;;8.05;100.00;101967.94;4935032;29;20032;-79
2022/10/14 01:30:04;;;;;;;7.63;4.53;;;;;;;8.07;100.00;101967.81;4935096;29;20027;-77
2022/10/14 01:32:49;;;;;;;8.57;5.03;;;;;;;8.09;100.00;101971.19;4935277;29;20036;-78
2022/10/14 01:35:30;;;;;;;7.27;5.13;;;;;;;8.05;100.00;101954.66;4935085;29;20035;-78
2022/10/14 01:38:01;;;;;;;8.33;5.93;;;;;;;8.09;100.00;101960.56;4934833;29;20416;-77
2022/10/14 01:40:39;;;;;;;7.40;4.73;;;;;;;8.12;100.00;101965.69;4936437;29;20047;-77
2022/10/14 01:43:06;;;;;;;10.17;5.30;;;;;;;8.08;100.00;101953.56;4920346;29;20050;-77
2022/10/14 01:45:35;;;;;;;8.33;5.77;;;;;;;8.08;100.00;101953.56;4937278;29;20484;-77
2022/10/14 01:48:03;;;;;;;8.13;5.87;;;;;;;7.84;100.00;101921.00;4935880;29;20028;-76
2022/10/14 01:50:30;;;;;;;10.50;6.13;;;;;;;8.06;100.00;101955.50;4918367;29;20476;-76
2022/10/14 01:53:08;;;;;;;15.00;5.80;;;;;;;8.09;100.00;101955.25;4936999;29;20082;-76
2022/10/14 01:55:38;;;;;;;9.40;6.23;;;;;;;8.10;100.00;101954.34;4939509;29;20040;-78
2022/10/14 01:58:07;;;;;;;10.27;6.27;;;;;;;8.10;100.00;101941.06;4949011;29;20028;-77
2022/10/14 02:00:33;;;;;;;7.20;5.47;;;;;;;8.05;100.00;101943.19;4929769;29;20387;-75
2022/10/14 02:02:59;;;;;;;9.70;6.10;;;;;;;7.94;100.00;101936.06;4957438;29;20027;-76
2022/10/14 02:05:50;;;;;;;10.23;5.70;;;;;;;8.02;100.00;101932.81;4957213;28;20035;-75
2022/10/14 02:08:35;;;;;;;11.00;6.33;;;;;;;8.04;100.00;101938.84;4940413;29;20042;-77
2022/10/14 02:11:14;;;;;;;12.20;6.03;;;;;;;7.96;100.00;101925.34;4940251;29;20047;-77
2022/10/14 02:13:58;;;;;;;10.80;6.43;;;;;;;8.12;100.00;101949.75;4937922;29;20060;-76
2022/10/14 02:16:42;;;;;;;10.60;7.60;;;;;;;8.13;100.00;101950.59;4957023;29;20020;-77
2022/10/14 02:19:48;;;;;;;11.77;7.30;;;;;;;8.15;100.00;101941.56;4950215;29;20031;-77
2022/10/14 02:22:36;;;;;;;16.13;7.90;;;;;;;8.08;100.00;101940.31;4938111;29;20122;-77
2022/10/14 02:25:20;;;;;;;12.03;6.60;;;;;;;8.02;100.00;101935.47;4938392;29;20043;-77
2022/10/14 02:27:48;;;;;;;13.20;6.30;;;;;;;8.06;100.00;101936.94;4937580;29;20063;-76
2022/10/14 02:30:15;;;;;;;14.70;7.55;;;;;;;8.08;100.00;101937.66;4937657;29;20027;-77
2022/10/14 02:32:42;;;;;;;12.00;6.97;;;;;;;8.03;100.00;101931.88;4937476;29;20038;-76
2022/10/14 02:35:11;;;;;;;18.13;6.23;;;;;;;7.97;100.00;101929.69;4937764;29;20150;-77
2022/10/14 02:37:37;;;;;;;;;;;;;;;7.96;100.00;101931.50;4920988;29;20563;-76
2022/10/14 02:40:25;;;;;;;10.50;6.60;;;;;;;7.83;100.00;101932.56;4937823;29;20246;-79
2022/10/14 02:42:50;;;;;;;13.02;6.95;;;;;;;7.73;100.00;101927.94;4941099;29;20472;-77
2022/10/14 02:45:18;;;;;;;10.70;7.10;;;;;;;7.78;100.00;101944.34;4945541;29;20046;-79
2022/10/14 02:47:43;;;;;;;11.17;6.60;;;;;;;7.70;100.00;101922.88;4942898;29;20567;-76
2022/10/14 02:50:09;;;;;;;12.13;7.00;;;;;;;7.86;100.00;101935.81;4942693;29;20070;-76
2022/10/14 02:52:35;;;;;;;12.47;7.10;;;;;;;7.88;100.00;101936.56;4945489;29;20051;-77
2022/10/14 02:55:00;;;;;;;8.70;6.67;;;;;;;7.86;100.00;101933.16;4961614;28;20020;-77
2022/10/14 02:57:26;;;;;;;14.23;7.30;;;;;;;7.83;100.00;101932.56;4961828;28;20048;-77
2022/10/14 02:59:51;;;;;;;8.83;6.53;;;;;;;7.83;100.00;101928.09;4949680;29;20063;-76
2022/10/14 03:02:17;;;;;;;15.53;6.93;;;;;;;7.77;100.00;101924.06;4938134;29;20470;-77
2022/10/14 03:04:42;;;;;;;8.50;6.57;;;;;;;7.71;100.00;101913.94;4937641;29;20495;-75
2022/10/14 03:07:08;;;;;;;9.10;7.00;;;;;;;7.82;100.00;101933.53;4942856;29;20038;-77
2022/10/14 03:09:33;;;;;;;11.50;6.57;;;;;;;7.90;100.00;101933.78;4958926;29;20019;-74
2022/10/14 03:12:00;;;;;;;12.17;6.40;;;;;;;7.91;100.00;101931.00;4958507;29;20078;-76
2022/10/14 03:14:26;;;;;;;12.57;7.60;;;;;;;7.93;100.00;101925.59;4958187;29;20049;-77
2022/10/14 03:16:52;;;;;;;12.27;5.93;;;;;;;7.94;100.00;101932.56;4937575;29;20019;-77
2022/10/14 03:19:17;;;;;;;15.63;7.67;;;;;;;7.93;100.00;101933.53;4937876;29;20468;-76
2022/10/14 03:21:43;;;;;;;11.67;7.27;;;;;;;7.94;100.00;101930.78;4937329;29;20022;-78
2022/10/14 03:24:09;;;;;;;12.93;7.47;;;;;;;7.91;100.00;101932.81;4937111;29;20383;-80
2022/10/14 03:26:34;;;;;;;16.40;7.63;;;;;;;7.88;100.00;101922.44;4904388;29;20028;-77
2022/10/14 03:29:00;;;;;;;10.83;6.50;;;;;;;7.79;100.00;101910.69;4937831;29;20034;-77
2022/10/14 03:31:25;;;;;;;12.53;7.83;;;;;;;7.90;100.00;101923.16;4943180;29;20054;-76
2022/10/14 03:33:51;;;;;;;17.37;8.07;;;;;;;7.89;100.00;101917.03;4960472;28;20020;-78
2022/10/14 03:36:16;;;;;;;12.07;8.23;;;;;;;7.86;100.00;101911.09;4960748;28;20085;-77
2022/10/14 03:38:42;;;;;;;16.57;8.50;;;;;;;7.86;100.00;101917.25;4943569;29;20115;-77
2022/10/14 03:41:07;;;;;;;11.77;7.97;;;;;;;7.90;100.00;101917.88;4937256;29;20383;-76
2022/10/14 03:43:33;;;;;;;14.07;7.73;;;;;;;7.97;100.00;101917.28;4936641;29;20035;-75
2022/10/14 03:45:59;;;;;;;11.63;8.60;;;;;;;8.02;100.00;101916.91;4936375;29;20031;-76
2022/10/14 04:06:37;;;;;;;14.40;9.03;;;;;;;7.79;100.00;101870.94;4876190;29;20073;-76
2022/10/14 04:09:04;;;;;;;12.27;10.23;;;;;;;7.94;100.00;101900.75;4876442;29;20048;-74
2022/10/14 04:12:12;;;;;;;16.27;8.73;;;;;;;7.99;100.00;101902.06;4906522;29;20087;-74
2022/10/14 04:14:37;;;;;;;16.98;9.05;;;;;;;7.94;100.00;101885.69;4935843;29;20036;-77
2022/10/14 04:17:02;;;;;;;13.50;10.10;;;;;;;8.00;100.00;101893.16;4935877;29;20094;-76
2022/10/14 04:19:29;;;;;;;15.33;9.13;;;;;;;8.01;100.00;101894.00;4936650;29;20061;-76
2022/10/14 04:21:55;;;;;;;11.43;8.57;;;;;;;7.92;100.00;101879.66;4936083;29;20470;-76
2022/10/14 04:24:20;;;;;;;13.87;9.80;;;;;;;8.00;100.00;101889.66;4935853;29;20122;-75
2022/10/14 04:26:51;;;;;;;14.13;8.23;;;;;;;7.91;100.00;101872.66;4918147;29;20060;-76
2022/10/14 04:29:18;;;;;;;16.20;9.30;;;;;;;8.01;100.00;101889.53;4918407;29;20088;-77
2022/10/14 04:31:43;;;;;;;14.63;7.97;;;;;;;8.07;100.00;101885.56;4934712;29;20039;-77
2022/10/14 04:34:10;;;;;;;13.10;8.57;;;;;;;8.16;100.00;101892.81;4935056;29;20042;-75
2022/10/14 04:36:37;;;;;;;11.60;6.87;;;;;;;8.20;100.00;101886.31;4917064;29;20035;-76
2022/10/14 04:39:03;;;;;;;13.60;5.30;;;;;;;8.20;100.00;101886.31;4935645;29;20031;-78
2022/10/14 04:41:28;;;;;;;11.33;4.90;;;;;;;8.21;100.00;101885.34;4935125;29;20035;-74
2022/10/14 04:44:16;;;;;;;11.50;5.43;;;;;;;8.18;100.00;101871.47;4933696;29;20123;-78
2022/10/14 04:46:41;;;;;;;7.90;4.90;;;;;;;8.24;100.00;101882.44;4927548;29;20087;-74
2022/10/14 04:49:44;;;;;;;8.83;4.60;;;;;;;8.18;100.00;101882.09;4933351;29;20036;-75
2022/10/14 04:52:09;;;;;;;20.93;7.23;;;;;;;8.07;100.00;101861.69;4933860;29;20031;-79
2022/10/14 04:54:35;;;;;;;11.17;5.80;;;;;;;8.10;100.00;101871.25;4935248;29;20024;-75
2022/10/14 04:57:01;;;;;;;11.17;6.40;;;;;;;8.03;100.00;101870.84;4935689;29;20027;-76
2022/10/14 04:59:27;;;;;;;12.03;6.10;;;;;;;8.02;100.00;101875.31;4917782;29;20087;-75
2022/10/14 05:01:52;;;;;;;13.27;6.83;;;;;;;8.09;100.00;101880.97;4935272;29;20035;-74
2022/10/14 05:04:18;;;;;;;16.83;7.90;;;;;;;8.10;100.00;101877.38;4917596;29;20039;-76
2022/10/14 05:06:44;;;;;;;10.50;7.37;;;;;;;8.15;100.00;101879.69;4916729;29;20024;-75
2022/10/14 05:09:09;;;;;;;14.53;7.83;;;;;;;8.17;100.00;101878.59;4901231;29;20034;-76
2022/10/14 05:11:36;;;;;;;14.53;9.20;;;;;;;8.11;100.00;101862.31;4916800;29;20055;-76
2022/10/14 05:14:01;;;;;;;12.43;8.27;;;;;;;8.11;100.00;101862.31;4917887;29;20032;-74
2022/10/14 05:16:27;;;;;;;11.40;7.33;;;;;;;8.11;100.00;101867.63;4918359;29;20436;-75
2022/10/14 05:18:53;;;;;;;13.87;7.63;;;;;;;8.16;100.00;101876.91;4935189;29;20127;-76
2022/10/14 05:21:18;;;;;;;12.63;8.30;;;;;;;8.07;100.00;101856.38;4917460;29;20432;-76
2022/10/14 05:23:44;;;;;;;16.43;10.33;;;;;;;8.05;100.00;101845.88;4917993;29;20038;-75
2022/10/14 05:26:10;;;;;;;20.53;8.27;;;;;;;8.04;100.00;101840.69;4933139;29;20035;-75
2022/10/14 05:28:44;;;;;;;13.57;8.23;;;;;;;8.02;100.00;101821.41;4916843;29;20031;-78
2022/10/14 05:31:10;;;;;;;15.83;8.00;;;;;;;8.12;100.00;101838.31;4876980;29;20508;-76
2022/10/14 05:33:53;;;;;;;15.67;7.67;;;;;;;7.93;100.00;101811.53;4878329;29;20076;-75
2022/10/14 05:36:19;;;;;;;13.97;7.43;;;;;;;8.23;100.00;101854.22;4894798;29;20477;-76
2022/10/14 05:38:45;;;;;;;14.23;7.37;;;;;;;8.29;100.00;101851.06;4894907;29;20040;-77
2022/10/14 05:41:10;;;;;;;14.63;8.23;;;;;;;8.29;100.00;101834.31;4895014;29;20161;-75
2022/10/14 05:51:05;;;;;;;12.37;6.53;;;;;;;8.19;100.00;101802.34;4880256;29;20361;-78
2022/10/14 05:53:38;;;;;;;12.07;7.10;;;;;;;8.30;100.00;101812.97;4895970;29;20115;-78
2022/10/14 05:56:09;;;;;;;16.57;7.77;;;;;;;8.46;100.00;101852.44;4882330;29;20060;-78
2022/10/14 05:58:34;;;;;;;15.40;7.53;;;;;;;8.33;100.00;101830.44;4898835;29;20036;-78
2022/10/14 06:01:07;;;;;;;12.07;8.03;;;;;;;8.26;100.00;101824.78;4898040;29;20115;-78
2022/10/14 06:03:33;;;;;;;14.10;8.10;;;;;;;8.28;100.00;101822.84;4920693;29;20035;-76
2022/10/14 06:06:01;;;;;;;16.10;8.43;;;;;;;8.45;100.00;101852.56;4937349;29;20046;-77
2022/10/14 06:08:27;;;;;;;20.45;9.75;;;;;;;8.45;100.00;101841.94;4920046;29;20027;-78
2022/10/14 06:10:55;;;;;;;21.50;9.50;;;;;;;8.52;100.00;101848.44;4926895;29;20055;-77
2022/10/14 06:13:21;;;;;;;14.03;8.23;;;;;;;8.65;100.00;101846.47;4920065;29;20477;-77
2022/10/14 06:15:47;;;;;;;17.33;9.97;;;;;;;8.65;100.00;101833.19;4921218;29;20088;-77
2022/10/14 06:18:13;;;;;;;18.43;8.17;;;;;;;8.60;100.00;101840.69;4922428;29;20032;-78
2022/10/14 06:20:38;;;;;;;15.00;8.73;;;;;;;8.61;100.00;101845.03;4920202;29;20028;-78
2022/10/14 06:23:04;;;;;;;10.63;7.67;;;;;;;8.56;100.00;101847.22;4920535;29;20031;-77
2022/10/14 07:00:21;;;;;;;15.13;8.27;;;;;;;8.88;100.00;101840.16;5576756;23;20803;-79
2022/10/14 07:02:47;;;;;;;12.37;6.73;;;;;;;8.85;100.00;101827.13;4918196;29;20123;-78
2022/10/14 07:06:00;;;;;;;13.73;7.50;;;;;;;8.97;100.00;101850.06;4900562;29;20511;-77
2022/10/14 07:08:25;;;;;;;14.33;8.17;;;;;;;9.02;100.00;101851.47;4921500;29;20042;-78
2022/10/14 07:10:51;;;;;;;18.77;8.37;;;;;;;9.02;100.00;101848.81;4901993;29;20136;-79
2022/10/14 07:13:16;;;;;;;15.23;8.47;;;;;;;8.93;100.00;101827.31;4918288;29;20028;-77
2022/10/14 07:15:42;;;;;;;22.70;12.97;;;;;;;9.00;100.00;101830.34;4917456;29;20028;-79
2022/10/14 07:18:08;;;;;;;23.47;11.70;;;;;;;9.15;100.00;101847.66;4901091;29;20035;-77
2022/10/14 07:20:36;;;;;;;15.30;7.35;;;;;;;9.16;100.00;101841.38;4917527;29;20547;-77
2022/10/14 07:23:01;;;;;;;11.30;6.43;;;;;;;9.22;100.00;101850.66;4917987;29;20036;-77
2022/10/14 07:25:27;;;;;;;9.33;7.03;;;;;;;9.19;100.00;101830.50;4918800;29;20024;-77
2022/10/14 07:27:52;;;;;;;10.23;6.87;;;;;;;9.29;100.00;101847.38;4918583;29;20024;-80
2022/10/14 07:30:18;;;;;;;8.97;6.83;;;;;;;9.30;100.00;101843.75;4917866;29;20036;-77
2022/10/14 07:32:44;;;;;;;13.43;7.07;;;;;;;9.34;100.00;101844.34;4916266;29;20067;-78
2022/10/14 07:35:10;;;;;;;11.10;8.33;;;;;;;9.39;100.00;101858.09;4917476;29;20043;-78
2022/10/14 07:37:35;;;;;;;16.60;8.77;;;;;;;9.49;100.00;101856.34;4918522;29;20032;-77
2022/10/14 07:40:01;;;;;;;10.90;7.73;;;;;;;9.63;100.00;101857.84;4884767;29;20028;-77
2022/10/14 07:42:29;;;;;;;16.15;9.32;;;;;;;9.72;100.00;101861.53;4917358;29;20040;-77
2022/10/14 07:44:56;;;;;;;14.87;9.27;;;;;;;9.72;100.00;101853.56;4917400;29;20028;-78
2022/10/14 07:47:22;;;;;;;14.73;8.23;;;;;;;9.73;99.73;101844.59;4917339;29;20376;-76
2022/10/14 07:49:47;;;;;;;12.97;7.97;;;;;;;9.87;99.76;101857.59;4917404;29;20036;-77
2022/10/14 07:52:14;;;;;;;13.13;7.67;;;;;;;9.85;99.07;101859.53;4917304;29;20043;-78
2022/10/14 07:54:40;;;;;;;13.37;7.90;;;;;;;9.85;98.90;101859.53;4917016;29;20365;-77
2022/10/14 07:57:06;;;;;;;14.40;9.23;;;;;;;9.81;99.09;101863.41;4916929;29;20518;-78
2022/10/14 07:59:32;;;;;;;14.17;8.23;;;;;;;9.71;99.36;101851.88;4899707;29;20087;-78
2022/10/14 08:01:58;;;;;;;13.87;7.63;;;;;;;9.71;99.64;101849.22;4916935;29;20451;-76
2022/10/14 08:04:25;;;;;;;13.33;8.47;;;;;;;9.80;100.00;101848.41;4916840;29;20044;-78
2022/10/14 08:06:52;;;;;;;13.57;7.67;;;;;;;9.84;99.25;101847.19;4916114;29;20087;-78
2022/10/14 08:09:18;;;;;;;13.03;8.23;;;;;;;9.93;98.96;101841.94;4917038;29;20408;-78
2022/10/14 08:11:44;;;;;;;11.40;7.90;;;;;;;10.01;99.01;101837.75;4917006;29;20028;-77
2022/10/14 08:14:10;;;;;;;14.10;9.70;;;;;;;10.13;98.19;101837.53;4915665;29;20036;-76
2022/10/14 08:16:36;;;;;;;15.47;9.00;;;;;;;10.27;97.72;101838.19;4916432;29;20184;-78
2022/10/14 08:19:05;;;;;;;18.73;9.00;;;;;;;10.36;97.56;101851.53;4916523;29;20349;-77
2022/10/14 08:21:31;;;;;;;20.23;9.80;;;;;;;10.44;96.93;101840.22;4916708;29;20087;-76
2022/10/14 08:23:57;;;;;;;10.67;8.03;;;;;;;10.46;96.37;101835.59;4916715;29;20063;-78
2022/10/14 08:26:27;;;;;;;15.30;9.20;;;;;;;10.51;97.38;101846.69;4916625;29;20122;-78
2022/10/14 08:28:53;;;;;;;13.23;8.13;;;;;;;10.42;96.89;101836.84;4899781;29;20121;-77
2022/10/14 08:31:19;;;;;;;13.73;8.57;;;;;;;10.35;97.25;101835.69;4916359;29;20058;-78
2022/10/14 08:33:45;;;;;;;14.33;9.27;;;;;;;10.37;97.40;101839.88;4916164;29;20341;-77
2022/10/14 08:36:11;;;;;;;10.53;6.63;;;;;;;10.41;97.15;101833.34;4916191;29;20035;-78
2022/10/14 08:38:36;;;;;;;11.87;6.70;;;;;;;10.46;97.09;101832.94;4916657;29;20440;-77
2022/10/14 08:41:11;;;;;;;9.97;7.23;;;;;;;10.41;96.55;101819.19;4916776;29;20122;-77
2022/10/14 08:44:05;;;;;;;10.53;6.63;;;;;;;10.52;96.94;101837.72;4916114;29;20052;-79
2022/10/14 08:46:57;;;;;;;8.47;5.77;;;;;;;10.35;96.62;101819.69;4917041;29;20074;-78
2022/10/14 08:49:34;;;;;;;9.00;6.57;;;;;;;10.39;96.79;101826.44;4916402;29;20114;-78
2022/10/14 08:52:24;;;;;;;9.00;6.10;;;;;;;10.54;96.84;101831.25;4916154;29;20555;-76
2022/10/14 08:55:03;;;;;;;12.50;5.70;;;;;;;10.61;96.15;101823.56;4899691;29;20032;-78
2022/10/14 08:57:46;;;;;;;11.70;6.63;;;;;;;10.75;95.17;101827.69;4916151;29;20032;-78
2022/10/14 09:00:16;;;;;;;10.67;7.60;;;;;;;10.78;94.29;101827.41;4916148;29;20059;-78
2022/10/14 09:21:38;;;;;;;13.43;6.57;;;;;;;11.28;93.40;101820.13;5265342;23;20060;-79
2022/10/14 09:24:27;;;;;;;15.70;6.50;;;;;;;11.31;92.96;101816.34;4883697;29;20076;-77
2022/10/14 09:27:03;;;;;;;11.38;6.15;;;;;;;11.29;92.61;101812.97;4915980;29;20287;-78
2022/10/14 09:29:33;;;;;;;12.13;6.83;;;;;;;11.23;92.86;101809.03;4918166;29;20032;-78
2022/10/14 09:32:07;;;;;;;12.13;7.10;;;;;;;11.09;93.27;101798.78;4919859;29;20381;-78
2022/10/14 09:34:39;;;;;;;12.23;6.57;;;;;;;11.11;93.12;101802.16;4920092;29;20082;-77
2022/10/14 09:37:23;;;;;;;22.60;6.83;;;;;;;11.09;94.11;101801.47;4919601;29;20081;-78
2022/10/14 09:39:51;;;;;;;10.93;6.17;;;;;;;11.04;93.71;101806.38;4902828;29;20032;-78
2022/10/14 09:42:46;;;;;;;17.20;6.87;;;;;;;10.94;94.35;101805.50;4919385;29;20055;-78
2022/10/14 09:45:15;;;;;;;14.50;7.13;;;;;;;10.87;93.97;101799.91;4919397;29;20395;-77
2022/10/14 09:47:48;;;;;;;18.30;7.07;;;;;;;10.81;93.87;101795.13;4919230;29;20036;-78
2022/10/14 09:50:39;;;;;;;14.17;5.80;;;;;;;10.83;93.98;101807.34;4902364;29;20028;-77
2022/10/14 09:53:17;;;;;;;12.13;6.63;;;;;;;10.74;94.73;101794.84;4919807;29;20031;-78
2022/10/14 09:56:04;;;;;;;16.03;6.93;;;;;;;10.69;94.47;101804.22;4919544;29;20032;-78
2022/10/14 09:58:47;;;;;;;12.97;6.83;;;;;;;10.67;94.33;101799.03;4920073;29;20195;-78
2022/10/14 10:01:39;;;;;;;12.43;6.07;;;;;;;10.64;94.05;101782.47;4919877;29;20039;-78
2022/10/14 10:04:26;;;;;;;8.40;6.03;;;;;;;10.76;93.87;101797.38;4919031;29;20043;-79
2022/10/14 10:06:54;;;;;;;10.03;6.07;;;;;;;10.78;93.84;101790.94;4923477;29;20035;-79
2022/10/14 10:09:20;;;;;;;13.43;7.30;;;;;;;10.82;93.90;101787.00;4943061;29;20016;-78
2022/10/14 10:11:47;;;;;;;9.17;5.57;;;;;;;10.84;93.74;101795.69;4943473;29;20604;-78
2022/10/14 10:14:20;;;;;;;11.70;6.20;;;;;;;10.86;93.04;101793.72;4942719;29;20079;-77
2022/10/14 10:16:46;;;;;;;10.07;6.43;;;;;;;10.84;92.61;101790.38;4940636;29;20028;-78
2022/10/14 10:19:42;;;;;;;7.93;4.97;;;;;;;10.83;92.75;101794.00;4933754;29;20028;-78
2022/10/14 10:22:18;;;;;;;11.73;6.13;;;;;;;10.84;92.44;101794.84;4924359;29;20052;-79
2022/10/14 10:24:45;;;;;;;15.97;6.53;;;;;;;10.79;92.82;101787.28;4921389;29;20044;-77
2022/10/14 10:27:24;;;;;;;13.13;5.73;;;;;;;10.84;91.56;101790.38;4919406;29;20488;-78
2022/10/14 10:29:50;;;;;;;12.33;5.70;;;;;;;10.86;91.85;101796.41;4918935;29;20370;-77
2022/10/14 10:32:29;;;;;;;20.00;5.70;;;;;;;10.95;90.91;101797.38;4938438;29;20055;-78
2022/10/14 10:35:14;;;;;;;13.70;5.67;;;;;;;11.06;89.90;101794.59;4942363;29;20022;-77
2022/10/14 10:38:08;;;;;;;15.47;5.47;;;;;;;11.15;89.85;101788.41;4928037;29;20039;-77
2022/10/14 10:40:56;;;;;;;15.13;6.83;;;;;;;11.20;89.50;101793.31;4921378;29;20110;-77
2022/10/14 10:43:35;;;;;;;12.90;6.35;;;;;;;11.20;89.24;101790.63;4929421;29;20027;-77
2022/10/14 11:36:20;;;;;;;17.10;5.47;;;;;;;10.74;90.78;101757.56;5723534;23;20036;-79
2022/10/14 11:51:44;;;;;;;11.07;5.33;;;;;;;10.82;89.97;101752.38;5383958;23;20067;-78
2022/10/14 11:54:21;;;;;;;7.53;4.40;;;;;;;10.84;90.16;101753.06;4939173;29;20032;-77
2022/10/14 11:56:56;;;;;;;8.53;4.90;;;;;;;10.80;90.26;101741.00;4939693;29;20034;-81
2022/10/14 11:59:45;;;;;;;7.70;5.23;;;;;;;10.85;90.51;101751.25;4936795;29;20043;-79
2022/10/14 12:02:31;;;;;;;12.20;4.73;;;;;;;10.83;89.87;101745.22;4926629;29;20035;-79
2022/10/14 12:05:00;;;;;;;9.57;4.73;;;;;;;10.80;89.84;101733.00;4919709;29;20035;-78
2022/10/14 12:07:44;;;;;;;11.27;5.10;;;;;;;10.78;89.99;101732.31;4936041;29;20098;-76
2022/10/14 12:10:25;;;;;;;8.60;4.87;;;;;;;10.85;90.33;101733.41;4936290;29;20036;-78
2022/10/14 12:12:53;;;;;;;7.93;4.57;;;;;;;10.86;89.94;101729.78;4936330;29;20070;-74
2022/10/14 12:15:21;;;;;;;8.52;4.45;;;;;;;10.92;89.38;101727.53;4936177;29;20036;-77
2022/10/14 12:17:58;;;;;;;11.32;4.53;;;;;;;10.88;89.31;101710.97;4935828;29;20038;-75
2022/10/14 12:20:47;;;;;;;8.27;4.60;;;;;;;11.00;89.16;101725.00;4935476;29;20353;-75
2022/10/14 12:23:30;;;;;;;9.70;4.72;;;;;;;10.99;89.57;101712.66;4935711;29;20026;-80
2022/10/14 12:26:09;;;;;;;10.10;5.37;;;;;;;10.75;89.78;101679.31;4935614;29;20035;-75
2022/10/14 12:28:41;;;;;;;9.37;5.07;;;;;;;10.86;89.57;101702.28;4918857;29;20074;-76
2022/10/14 12:31:25;;;;;;;11.03;5.47;;;;;;;10.86;89.65;101713.78;4935761;29;20031;-77
2022/10/14 12:34:17;;;;;;;10.00;5.20;;;;;;;10.85;90.16;101712.09;4918223;29;20032;-79
2022/10/14 12:36:49;;;;;;;10.07;5.20;;;;;;;10.87;90.89;101717.28;4924541;29;20044;-81
2022/10/14 12:39:21;;;;;;;13.53;7.23;;;;;;;10.83;90.87;101714.06;4918993;29;20047;-82
2022/10/14 12:42:06;;;;;;;16.40;5.93;;;;;;;10.81;90.63;101710.72;4927488;29;20388;-78
2022/10/14 12:44:51;;;;;;;8.25;5.60;;;;;;;10.55;91.31;101674.94;4937250;29;20428;-79
2022/10/14 12:47:30;;;;;;;11.30;5.07;;;;;;;10.79;91.19;101707.34;4935442;29;20122;-78
2022/10/14 12:50:31;;;;;;;12.40;5.83;;;;;;;10.72;90.71;101700.91;4935137;29;20028;-78
2022/10/14 12:53:27;;;;;;;12.70;5.97;;;;;;;10.70;91.11;101702.03;4920314;29;20128;-80
2022/10/14 12:55:58;;;;;;;10.07;5.03;;;;;;;10.62;91.24;101689.38;4918509;29;20373;-79
2022/10/14 12:58:34;;;;;;;13.17;5.43;;;;;;;10.69;91.35;101695.81;4936546;29;20118;-79
2022/10/14 13:09:16;;;;;;;9.93;5.83;;;;;;;10.66;92.01;101687.28;5007178;23;20090;-80
2022/10/14 13:12:07;;;;;;;9.20;5.63;;;;;;;10.50;92.07;101662.06;4949538;29;20498;-79
2022/10/14 13:14:57;;;;;;;8.70;4.43;;;;;;;10.65;91.66;101683.78;4950043;29;20042;-79
2022/10/14 13:17:46;;;;;;;10.77;6.20;;;;;;;10.62;91.53;101670.75;4950104;29;20119;-80
2022/10/14 13:20:33;;;;;;;12.00;4.93;;;;;;;10.70;91.44;101680.72;4950421;29;20039;-79
2022/10/14 13:23:17;;;;;;;11.70;4.37;;;;;;;10.64;91.86;101684.75;4948455;29;20027;-79
2022/10/14 13:25:43;;;;;;;13.23;5.23;;;;;;;10.62;91.63;101675.22;4938326;29;20058;-79
2022/10/14 13:28:19;;;;;;;10.67;4.97;;;;;;;10.63;91.70;101680.41;4935472;29;20027;-78
2022/10/14 13:31:12;;;;;;;9.10;6.03;;;;;;;10.62;91.72;101676.06;4894333;29;20045;-77
2022/10/14 13:34:36;;;;;;;8.17;6.03;;;;;;;10.62;91.98;101670.75;4895190;29;20032;-79
2022/10/14 13:37:36;;;;;;;14.63;6.80;;;;;;;10.68;92.12;101675.50;4852252;29;20504;-79
2022/10/14 13:40:30;;;;;;;8.60;4.93;;;;;;;10.62;91.72;101668.06;4903321;29;20044;-75
2022/10/14 13:42:59;;;;;;;11.20;5.13;;;;;;;10.59;91.84;101672.84;4911483;29;20021;-77
2022/10/14 13:45:35;;;;;;;8.90;4.80;;;;;;;10.61;91.70;101669.06;4908822;29;20210;-73
2022/10/14 13:48:01;;;;;;;7.83;4.77;;;;;;;10.58;92.08;101665.84;4909665;29;20092;-75
2022/10/14 13:50:35;;;;;;;8.20;4.53;;;;;;;10.52;92.33;101665.44;4914012;29;20040;-78
2022/10/14 13:53:05;;;;;;;11.63;4.83;;;;;;;10.51;91.88;101670.91;4910431;29;20032;-79
2022/10/14 13:55:31;;;;;;;8.40;5.33;;;;;;;10.50;92.15;101664.72;4898875;29;20108;-78
2022/10/14 13:58:10;;;;;;;5.33;4.83;;;;;;;10.51;91.86;101665.56;4897874;29;20193;-80
2022/10/14 14:00:40;;;;;;;15.37;5.87;;;;;;;10.44;92.40;101669.78;4913397;29;20032;-77
2022/10/14 14:03:19;;;;;;;16.03;7.80;;;;;;;10.48;92.94;101668.50;4953809;29;20043;-79
2022/10/14 14:05:45;;;;;;;13.63;6.80;;;;;;;10.42;92.92;101661.09;4917173;29;20118;-77
2022/10/14 14:08:42;;;;;;;12.23;6.60;;;;;;;10.42;93.87;101663.75;4953827;29;20034;-80
2022/10/14 14:11:16;;;;;;;11.60;6.20;;;;;;;10.38;93.81;101664.97;4952957;29;20027;-80
2022/10/14 14:13:56;;;;;;;12.60;6.30;;;;;;;10.35;94.29;101670.59;4955159;29;20056;-79
2022/10/14 14:16:35;;;;;;;12.97;5.60;;;;;;;10.28;94.49;101667.66;4948949;29;20031;-80